createdAt,value
2019-03-01T00:03:26.245Z,55.22
2019-03-01T00:08:58.298Z,55.45
2019-03-01T00:14:17.748Z,55.57
2019-03-01T00:19:38.369Z,55.97
2019-03-01T00:25:02.918Z,56.20
2019-03-01T00:30:41.262Z,56.34
2019-03-01T00:36:17.748Z,56.42
2019-03-01T00:41:56.342Z,56.75
2019-03-01T00:46:58.140Z,57.03
2019-03-01T00:51:59.788Z,57.19
2019-03-01T00:57:01.461Z,57.51
2019-03-01T01:02:03.343Z,57.70
2019-03-01T01:07:04.909Z,57.95
2019-03-01T01:12:06.496Z,57.96
2019-03-01T01:17:08.048Z,58.15
2019-03-01T01:22:09.624Z,58.28
2019-03-01T01:27:11.181Z,58.48
2019-03-01T01:32:12.741Z,58.62
2019-03-01T01:37:14.296Z,58.83
2019-03-01T01:42:15.962Z,58.92
2019-03-01T01:47:17.681Z,59.06
2019-03-01T01:52:19.461Z,59.24
2019-03-01T01:57:21.010Z,59.41
2019-03-01T02:02:22.667Z,59.50
2019-03-01T02:07:24.318Z,59.59
2019-03-01T02:12:25.896Z,59.74
2019-03-01T02:17:27.464Z,59.93
2019-03-01T02:22:29.034Z,59.85
2019-03-01T02:27:30.707Z,59.95
2019-03-01T02:32:40.617Z,60.18
2019-03-01T02:37:42.181Z,60.30
2019-03-01T02:42:43.733Z,60.38
2019-03-01T02:47:45.495Z,60.36
2019-03-01T02:52:47.145Z,60.47
2019-03-01T02:57:48.711Z,60.49
2019-03-01T03:02:50.371Z,60.57
2019-03-01T03:07:53.878Z,60.70
2019-03-01T03:13:00.756Z,60.79
2019-03-01T03:18:02.296Z,60.87
2019-03-01T03:23:03.870Z,60.89
2019-03-01T03:28:05.521Z,60.95
2019-03-01T03:33:07.111Z,61.07
2019-03-01T03:38:08.673Z,61.14
2019-03-01T03:43:10.232Z,61.19
2019-03-01T03:48:11.804Z,61.32
2019-03-01T03:53:13.483Z,61.31
2019-03-01T03:58:15.147Z,61.44
2019-03-01T04:03:16.720Z,61.50
2019-03-01T04:08:18.376Z,61.59
2019-03-01T04:13:19.935Z,61.66
2019-03-01T04:18:21.497Z,61.82
2019-03-01T04:23:23.067Z,61.94
2019-03-01T04:28:24.697Z,61.94
2019-03-01T04:33:26.208Z,62.02
2019-03-01T04:38:27.762Z,62.04
2019-03-01T04:43:29.339Z,62.03
2019-03-01T04:48:30.885Z,62.02
2019-03-01T04:53:32.561Z,62.08
2019-03-01T04:58:34.113Z,62.28
2019-03-01T05:03:35.673Z,62.48
2019-03-01T05:08:37.249Z,62.50
2019-03-01T05:13:38.811Z,62.56
2019-03-01T05:18:40.373Z,62.73
2019-03-01T05:23:41.933Z,62.73
2019-03-01T05:28:43.501Z,62.72
2019-03-01T05:33:45.065Z,62.86
2019-03-01T05:38:46.628Z,62.94
2019-03-01T05:43:48.223Z,63.05
2019-03-01T05:48:49.804Z,63.19
2019-03-01T05:53:51.509Z,63.19
2019-03-01T05:59:16.222Z,63.36
2019-03-01T06:04:30.704Z,63.49
2019-03-01T06:09:59.704Z,63.42
2019-03-01T06:15:31.300Z,63.36
2019-03-01T06:21:02.105Z,63.51
2019-03-01T06:26:33.604Z,63.45
2019-03-01T06:32:19.405Z,63.50
2019-03-01T06:38:05.154Z,63.61
2019-03-01T06:43:43.445Z,63.50
2019-03-01T06:48:58.266Z,63.56
2019-03-01T06:53:59.839Z,63.57
2019-03-01T06:59:03.223Z,63.51
2019-03-01T07:04:17.528Z,63.43
2019-03-01T07:09:19.095Z,63.48
2019-03-01T07:14:20.658Z,63.72
2019-03-01T07:19:22.223Z,63.90
2019-03-01T07:24:23.890Z,64.07
2019-03-01T07:29:25.547Z,64.17
2019-03-01T07:34:27.115Z,64.32
2019-03-01T07:39:28.673Z,64.44
2019-03-01T07:44:30.261Z,64.30
2019-03-01T07:49:31.804Z,64.47
2019-03-01T07:54:33.473Z,64.74
2019-03-01T07:59:38.438Z,64.95
2019-03-01T08:04:38.551Z,65.12
2019-03-01T08:09:41.405Z,65.08
2019-03-01T08:14:43.572Z,65.07
2019-03-01T08:19:45.733Z,65.13
2019-03-01T08:24:47.592Z,65.05
2019-03-01T08:29:49.162Z,64.79
2019-03-01T08:34:53.703Z,64.90
2019-03-01T08:39:54.294Z,65.04
2019-03-01T08:44:58.174Z,64.89
2019-03-01T08:49:59.609Z,64.82
2019-03-01T08:55:03.921Z,64.72
2019-03-01T09:00:11.009Z,64.35
2019-03-01T09:05:12.735Z,63.87
2019-03-01T09:10:15.075Z,63.92
2019-03-01T09:15:16.745Z,64.49
2019-03-01T09:20:18.331Z,64.45
2019-03-01T09:25:20.017Z,64.57
2019-03-01T09:30:22.146Z,64.51
2019-03-01T09:35:43.233Z,63.77
2019-03-01T09:40:45.286Z,63.19
2019-03-01T09:45:48.764Z,63.62
2019-03-01T09:50:50.442Z,64.17
2019-03-01T09:55:52.005Z,63.42
2019-03-01T10:00:57.611Z,63.84
2019-03-01T10:05:59.183Z,64.33
2019-03-01T10:11:00.750Z,64.86
2019-03-01T10:16:02.406Z,65.45
2019-03-01T10:21:04.176Z,65.66
2019-03-01T10:26:05.837Z,65.36
2019-03-01T10:31:07.401Z,64.36
2019-03-01T10:36:09.070Z,63.43
2019-03-01T10:41:10.854Z,62.63
2019-03-01T10:46:12.665Z,63.56
2019-03-01T10:51:14.247Z,64.58
2019-03-01T10:56:15.818Z,65.15
2019-03-01T11:01:17.502Z,65.62
2019-03-01T11:06:19.068Z,65.67
2019-03-01T11:11:20.700Z,65.56
2019-03-01T11:16:22.268Z,65.50
2019-03-01T11:21:23.979Z,64.98
2019-03-01T11:26:25.536Z,64.03
2019-03-01T11:31:27.084Z,64.45
2019-03-01T11:36:28.644Z,63.90
2019-03-01T11:41:30.535Z,63.95
2019-03-01T11:46:32.098Z,64.35
2019-03-01T11:51:33.778Z,64.97
2019-03-01T11:56:35.333Z,65.40
2019-03-01T12:01:37.003Z,65.33
2019-03-01T12:06:38.556Z,65.33
2019-03-01T12:11:40.104Z,65.51
2019-03-01T12:16:41.673Z,66.04
2019-03-01T12:21:43.257Z,66.24
2019-03-01T12:26:44.830Z,66.54
2019-03-01T12:31:46.412Z,66.63
2019-03-01T12:36:47.990Z,66.50
2019-03-01T12:41:49.569Z,66.27
2019-03-01T12:46:51.147Z,66.20
2019-03-01T12:51:52.737Z,65.72
2019-03-01T12:56:54.337Z,65.51
2019-03-01T13:01:55.905Z,64.60
2019-03-01T13:06:57.517Z,64.58
2019-03-01T13:11:59.077Z,65.01
2019-03-01T13:17:01.779Z,64.38
2019-03-01T13:22:04.242Z,65.05
2019-03-01T13:27:05.832Z,66.00
2019-03-01T13:32:07.427Z,66.32
2019-03-01T13:37:14.436Z,66.05
2019-03-01T13:42:13.390Z,66.11
2019-03-01T13:47:15.591Z,66.21
2019-03-01T13:52:17.185Z,66.58
2019-03-01T13:57:18.760Z,67.28
2019-03-01T14:02:20.344Z,67.65
2019-03-01T14:07:21.908Z,67.92
2019-03-01T14:12:23.513Z,67.99
2019-03-01T14:17:25.739Z,68.06
2019-03-01T14:22:27.489Z,68.19
2019-03-01T14:27:29.553Z,68.32
2019-03-01T14:32:32.075Z,68.38
2019-03-01T14:37:33.643Z,68.37
2019-03-01T14:42:35.220Z,68.52
2019-03-01T14:47:36.922Z,68.50
2019-03-01T14:52:38.512Z,68.62
2019-03-01T14:57:46.191Z,68.74
2019-03-01T15:02:55.993Z,68.81
2019-03-01T15:07:57.693Z,68.81
2019-03-01T15:12:59.263Z,68.87
2019-03-01T15:18:00.858Z,68.95
2019-03-01T15:23:02.555Z,68.98
2019-03-01T15:28:04.124Z,69.08
2019-03-01T15:33:08.409Z,68.99
2019-03-01T15:38:10.912Z,68.99
2019-03-01T15:43:12.555Z,68.92
2019-03-01T15:48:14.304Z,68.96
2019-03-01T15:53:15.877Z,69.00
2019-03-01T15:58:17.431Z,69.18
2019-03-01T16:03:19.003Z,69.09
2019-03-01T16:08:23.049Z,69.17
2019-03-01T16:13:24.617Z,69.40
2019-03-01T16:18:26.186Z,69.54
2019-03-01T16:23:30.283Z,69.50
2019-03-01T16:28:32.306Z,69.44
2019-03-01T16:33:34.038Z,69.53
2019-03-01T16:38:40.979Z,69.53
2019-03-01T16:43:39.109Z,69.59
2019-03-01T16:48:40.675Z,69.49
2019-03-01T16:53:42.257Z,69.60
2019-03-01T16:58:43.829Z,69.60
2019-03-01T17:03:45.775Z,69.55
2019-03-01T17:08:47.350Z,69.63
2019-03-01T17:13:48.908Z,69.79
2019-03-01T17:18:50.505Z,69.90
2019-03-01T17:23:52.072Z,69.81
2019-03-01T17:28:53.756Z,69.64
2019-03-01T17:33:55.326Z,69.75
2019-03-01T17:38:56.882Z,69.74
2019-03-01T17:43:58.446Z,69.96
2019-03-01T17:49:00.116Z,70.04
2019-03-01T17:54:01.701Z,70.03
2019-03-01T17:59:03.612Z,69.93
2019-03-01T18:04:05.178Z,70.12
2019-03-01T18:09:06.823Z,70.14
2019-03-01T18:14:08.365Z,70.22
2019-03-01T18:19:09.920Z,70.19
2019-03-01T18:24:14.279Z,70.19
2019-03-01T18:29:14.924Z,70.23
2019-03-01T18:34:16.480Z,70.23
2019-03-01T18:39:18.044Z,70.12
2019-03-01T18:44:22.471Z,70.26
2019-03-01T18:49:23.184Z,70.24
2019-03-01T18:54:24.773Z,70.33
2019-03-01T18:59:26.345Z,70.21
2019-03-01T19:04:29.501Z,70.02
2019-03-01T19:09:31.406Z,69.92
2019-03-01T19:14:35.579Z,69.98
2019-03-01T19:19:36.566Z,69.75
2019-03-01T19:24:43.090Z,69.68
2019-03-01T19:29:41.682Z,69.62
2019-03-01T19:34:43.240Z,69.81
2019-03-01T19:39:44.805Z,69.64
2019-03-01T19:44:46.373Z,69.67
2019-03-01T19:49:48.520Z,69.79
2019-03-01T19:54:51.215Z,69.50
2019-03-01T19:59:52.787Z,69.69
2019-03-01T20:04:55.694Z,69.67
2019-03-01T20:09:57.843Z,69.66
2019-03-01T20:14:59.423Z,69.31
2019-03-01T20:20:01.355Z,69.50
2019-03-01T20:25:03.642Z,69.34
2019-03-01T20:30:08.311Z,69.13
2019-03-01T20:35:12.874Z,69.14
2019-03-01T20:40:13.652Z,68.90
2019-03-01T20:45:17.708Z,68.96
2019-03-01T20:50:19.297Z,69.23
2019-03-01T20:55:20.861Z,68.88
2019-03-01T21:00:25.800Z,68.81
2019-03-01T21:05:28.973Z,68.68
2019-03-01T21:10:29.694Z,68.53
2019-03-01T21:15:31.347Z,68.41
2019-03-01T21:20:33.022Z,68.13
2019-03-01T21:25:35.829Z,68.24
2019-03-01T21:30:38.070Z,68.34
2019-03-01T21:35:39.635Z,67.88
2019-03-01T21:40:41.208Z,67.74
2019-03-01T21:45:42.757Z,67.64
2019-03-01T21:50:44.337Z,67.50
2019-03-01T21:55:46.017Z,67.30
2019-03-01T22:00:48.270Z,67.20
2019-03-01T22:05:50.379Z,67.21
2019-03-01T22:10:52.003Z,66.94
2019-03-01T22:15:53.715Z,66.94
2019-03-01T22:20:55.286Z,66.94
2019-03-01T22:25:56.984Z,66.93
2019-03-01T22:31:00.347Z,66.75
2019-03-01T22:36:02.042Z,66.58
2019-03-01T22:41:04.080Z,66.53
2019-03-01T22:46:06.400Z,66.17
2019-03-01T22:51:07.984Z,65.94
2019-03-01T22:56:12.030Z,65.89
2019-03-01T23:01:17.755Z,65.80
2019-03-01T23:06:19.316Z,65.56
2019-03-01T23:11:20.895Z,65.71
2019-03-01T23:16:22.475Z,65.79
2019-03-01T23:21:24.064Z,65.93
2019-03-01T23:26:25.636Z,66.16
2019-03-01T23:31:27.224Z,65.83
2019-03-01T23:36:29.754Z,65.90
2019-03-01T23:41:31.547Z,65.85
2019-03-01T23:46:33.235Z,65.59
2019-03-01T23:51:34.845Z,65.37
2019-03-01T23:56:36.449Z,65.37
